This is the latest recevied weather packets stored in our database for station/object Krauchnws. If no packets are shown the sender has not sent any weather packets the latest 10 day(s).
| Time | Temp. | Humidity | Pressure | Rain* | Wind** | Luminosity | Snow |
|---|---|---|---|---|---|---|---|
| 1777365132 | 13.89° C | 47% | 1015.2 hPa | 0 mm | - | - | - |
| 1777363331 | 12.22° C | 51% | 1015.1 hPa | 0 mm | - | - | - |
| 1777361536 | 11.11° C | 52% | 1015.3 hPa | 0 mm | - | - | - |
| 1777359732 | 10° C | 56% | 1015.4 hPa | 0 mm | - | - | - |
| 1777357931 | 7.78° C | 76% | 1015.6 hPa | 0 mm | - | - | - |
| 1777356133 | 6.67° C | 76% | 1015.4 hPa | 0 mm | - | - | - |
| 1777354331 | 5.56° C | 75% | 1015.3 hPa | 0 mm | - | - | - |
| 1777352531 | 6.11° C | 70% | 1015.1 hPa | 0 mm | - | - | - |
| 1777350732 | 6.11° C | 71% | 1014.9 hPa | 0 mm | - | - | - |
| 1777348932 | 6.11° C | 70% | 1015 hPa | 0 mm | - | - | - |
| 1777347133 | 6.11° C | 70% | 1015 hPa | 0 mm | - | - | - |
| 1777345331 | 6.11° C | 69% | 1015.3 hPa | 0 mm | - | - | - |
| 1777343532 | 6.67° C | 65% | 1015.5 hPa | 0 mm | - | - | - |
| 1777341732 | 7.22° C | 63% | 1015.7 hPa | 0 mm | - | - | - |
| 1777339933 | 7.22° C | 64% | 1015.7 hPa | 0 mm | - | - | - |
| 1777338131 | 7.78° C | 65% | 1015.8 hPa | 0 mm | - | - | - |
| 1777336329 | 7.78° C | 68% | 1016 hPa | 0 mm | - | - | - |
| 1777334529 | 7.78° C | 67% | 1016.1 hPa | 0 mm | - | - | - |
| 1777332730 | 8.33° C | 72% | 1016.2 hPa | 0 mm | - | - | - |
| 1777330929 | 8.89° C | 70% | 1016.2 hPa | 0 mm | - | - | - |
| 1777329129 | 10° C | 60% | 1016.2 hPa | 0 mm | - | - | - |
| 1777327329 | 10.56° C | 58% | 1016.5 hPa | 0 mm | - | - | - |
| 1777325530 | 11.11° C | 56% | 1016.6 hPa | 0 mm | - | - | - |
| 1777323730 | 11.11° C | 57% | 1016.7 hPa | 0 mm | - | - | - |
| 1777321930 | 12.22° C | 54% | 1016.7 hPa | 0 mm | - | - | - |
* Rain since midnight (hover to see other rain measurements)
** Current wind speed in m/s (hover to see current wind gust speed)